createdAt,value
2019-01-28T13:00:12.520Z,86.6
2019-01-28T13:00:32.642Z,87.2
2019-01-28T13:00:52.707Z,86.7
2019-01-28T13:01:13.144Z,87.6
2019-01-28T13:01:34.078Z,87.6
2019-01-28T13:01:54.178Z,88.4
2019-01-28T13:02:14.336Z,88.3
2019-01-28T13:02:34.505Z,87.8
2019-01-28T13:02:56.307Z,88.6
2019-01-28T13:03:17.067Z,88.5
2019-01-28T13:03:37.219Z,88.4
2019-01-28T13:03:57.596Z,88.2
2019-01-28T13:04:18.401Z,88.2
2019-01-28T13:04:44.652Z,88.2
2019-01-28T13:05:04.667Z,88.2
2019-01-28T13:05:24.986Z,88.3
2019-01-28T13:05:45.098Z,88.7
2019-01-28T13:06:05.233Z,88.5
2019-01-28T13:06:25.408Z,88.7
2019-01-28T13:06:45.582Z,88.5
2019-01-28T13:07:05.710Z,88.6
2019-01-28T13:07:25.880Z,87.9
2019-01-28T13:07:46.004Z,88.4
2019-01-28T13:08:06.073Z,88.4
2019-01-28T13:08:27.763Z,88.3
2019-01-28T13:08:47.971Z,89.1
2019-01-28T13:09:08.083Z,88.4
2019-01-28T13:09:29.554Z,89
2019-01-28T13:09:49.732Z,88.7
2019-01-28T13:10:09.818Z,88.7
2019-01-28T13:10:30.762Z,88.5
2019-01-28T13:10:50.921Z,88.3
2019-01-28T13:11:11.118Z,88.5
2019-01-28T13:11:31.275Z,87.9
2019-01-28T13:11:51.393Z,88.4
2019-01-28T13:12:11.530Z,87.8
2019-01-28T13:12:31.702Z,88.4
2019-01-28T13:12:51.906Z,88.4
2019-01-28T13:13:12.083Z,88.6
2019-01-28T13:13:32.364Z,88
2019-01-28T13:13:56.521Z,88.3
2019-01-28T13:14:16.761Z,88.3
2019-01-28T13:14:36.891Z,88.7
2019-01-28T13:14:57.087Z,87.8
2019-01-28T13:15:17.315Z,87.6
2019-01-28T13:15:37.488Z,87.8
2019-01-28T13:15:57.632Z,88.2
2019-01-28T13:16:17.812Z,88.8
2019-01-28T13:16:37.919Z,88.6
2019-01-28T13:16:58.048Z,88.1
2019-01-28T13:17:18.170Z,88.2
2019-01-28T13:17:39.066Z,88.4
2019-01-28T13:17:59.259Z,88.4
2019-01-28T13:18:20.564Z,88
2019-01-28T13:18:40.826Z,88.4
2019-01-28T13:19:00.925Z,88.7
2019-01-28T13:19:21.132Z,88.5
2019-01-28T13:19:47.912Z,88.1
2019-01-28T13:20:09.090Z,88.2
2019-01-28T13:20:29.278Z,88.8
2019-01-28T13:20:50.350Z,88.1
2019-01-28T13:21:10.509Z,88.8
2019-01-28T13:21:30.868Z,87.1
2019-01-28T13:21:51.133Z,86.7
2019-01-28T13:22:11.319Z,86.2
2019-01-28T13:22:31.478Z,86.2
2019-01-28T13:23:00.109Z,85.9
2019-01-28T13:23:20.381Z,86.7
2019-01-28T13:23:40.552Z,86.3
2019-01-28T13:24:00.893Z,86.6
2019-01-28T13:24:21.038Z,86.8
2019-01-28T13:24:41.211Z,86.9
2019-01-28T13:25:01.322Z,87.2
2019-01-28T13:25:25.807Z,87.2
2019-01-28T13:25:45.906Z,87.4
2019-01-28T13:26:06.012Z,87.3
2019-01-28T13:26:27.275Z,87.9
2019-01-28T13:26:47.336Z,87.3
2019-01-28T13:27:07.536Z,87.4
2019-01-28T13:27:27.628Z,87.7
2019-01-28T13:27:47.870Z,87.4
2019-01-28T13:28:07.951Z,87.8
2019-01-28T13:28:28.079Z,87.2
2019-01-28T13:28:48.304Z,86.4
2019-01-28T13:29:08.419Z,86
2019-01-28T13:29:28.471Z,86.2
2019-01-28T13:29:48.624Z,85.8
2019-01-28T13:30:10.410Z,86.4
2019-01-28T13:30:30.498Z,86.4
2019-01-28T13:30:50.610Z,86.6
2019-01-28T13:31:10.761Z,87.3
2019-01-28T13:31:35.418Z,87.1
2019-01-28T13:31:55.862Z,87.2
2019-01-28T13:32:16.034Z,87.5
2019-01-28T13:32:36.206Z,87.5
2019-01-28T13:32:56.450Z,87.4
2019-01-28T13:33:16.542Z,87
2019-01-28T13:33:36.705Z,87.1
2019-01-28T13:33:56.833Z,86.9
2019-01-28T13:34:17.734Z,87.3
2019-01-28T13:34:37.847Z,87.4
2019-01-28T13:34:57.953Z,87.8
2019-01-28T13:35:18.190Z,87.7
2019-01-28T13:35:38.388Z,87.7
2019-01-28T13:35:58.486Z,87.8
2019-01-28T13:36:24.374Z,87.2
2019-01-28T13:36:44.633Z,86.8
2019-01-28T13:37:04.750Z,86.3
2019-01-28T13:37:24.889Z,86
2019-01-28T13:37:45.529Z,86.5
2019-01-28T13:38:05.751Z,86.9
2019-01-28T13:38:25.908Z,87.1
2019-01-28T13:38:46.088Z,86.8
2019-01-28T13:39:06.192Z,87.3
2019-01-28T13:39:26.773Z,87.5
2019-01-28T13:39:47.047Z,85.6
2019-01-28T13:40:07.448Z,85.6
2019-01-28T13:40:27.585Z,84.7
2019-01-28T13:40:47.833Z,84.6
2019-01-28T13:41:08.014Z,84.7
2019-01-28T13:41:28.182Z,85.2
2019-01-28T13:41:49.880Z,84.5
2019-01-28T13:42:10.100Z,84.2
2019-01-28T13:42:30.128Z,83.6
2019-01-28T13:42:50.242Z,84.6
2019-01-28T13:43:10.376Z,84.4
2019-01-28T13:43:30.509Z,84.4
2019-01-28T13:43:50.701Z,85.3
2019-01-28T13:44:10.902Z,85.4
2019-01-28T13:44:31.139Z,85.6
2019-01-28T13:44:51.813Z,86.1
2019-01-28T13:45:11.877Z,86.4
2019-01-28T13:45:32.036Z,86.7
2019-01-28T13:45:52.153Z,86.3
2019-01-28T13:46:12.253Z,86.6
2019-01-28T13:46:32.429Z,86.6
2019-01-28T13:46:52.561Z,86.6
2019-01-28T13:47:12.733Z,86.6
2019-01-28T13:47:32.943Z,86.5
2019-01-28T13:47:53.187Z,86.8
2019-01-28T13:48:13.360Z,87
2019-01-28T13:48:33.546Z,87
2019-01-28T13:48:53.708Z,86.8
2019-01-28T13:49:13.742Z,86.8
2019-01-28T13:49:40.829Z,87.1
2019-01-28T13:50:00.947Z,87.2
2019-01-28T13:50:21.141Z,87.8
2019-01-28T13:50:41.306Z,87.2
2019-01-28T13:51:01.441Z,87.6
2019-01-28T13:51:21.828Z,87.9
2019-01-28T13:51:41.963Z,87.2
2019-01-28T13:52:02.179Z,87.7
2019-01-28T13:52:22.277Z,87.9
2019-01-28T13:52:44.372Z,87.5
2019-01-28T13:53:05.056Z,87.1
2019-01-28T13:53:25.118Z,87.1
2019-01-28T13:53:45.266Z,87.4
2019-01-28T13:54:05.349Z,87.7
2019-01-28T13:54:25.596Z,87.5
2019-01-28T13:54:45.738Z,88.1
2019-01-28T13:55:05.939Z,87.8
2019-01-28T13:55:25.991Z,88.2
2019-01-28T13:55:46.253Z,86.4
2019-01-28T13:56:06.458Z,85.8
2019-01-28T13:56:28.037Z,86.3
2019-01-28T13:56:48.289Z,86.4
2019-01-28T13:57:08.433Z,86.3
2019-01-28T13:57:28.585Z,86.5
2019-01-28T13:57:48.756Z,86.7
2019-01-28T13:58:09.537Z,86.1
2019-01-28T13:58:29.746Z,85.7
2019-01-28T13:58:51.565Z,86
2019-01-28T13:59:18.882Z,86.2
2019-01-28T13:59:39.036Z,86.6
2019-01-28T13:59:59.270Z,87.2
2019-01-28T14:00:19.396Z,87.1
2019-01-28T14:00:39.529Z,87.2
2019-01-28T14:00:59.748Z,87.2
2019-01-28T14:01:19.946Z,87.9
2019-01-28T14:01:40.139Z,87.5
2019-01-28T14:02:00.275Z,87.4
2019-01-28T14:02:20.510Z,87.6
2019-01-28T14:02:40.575Z,87.3
2019-01-28T14:03:01.272Z,87.3
2019-01-28T14:03:21.408Z,87.5
2019-01-28T14:03:41.468Z,87.5
2019-01-28T14:04:03.528Z,87.7
2019-01-28T14:04:23.602Z,87.7
2019-01-28T14:04:43.753Z,87.7
2019-01-28T14:05:03.835Z,88
2019-01-28T14:05:23.930Z,88.1
2019-01-28T14:05:44.102Z,88.6
2019-01-28T14:06:04.222Z,88
2019-01-28T14:06:24.472Z,87.6
2019-01-28T14:06:44.646Z,87.5
2019-01-28T14:07:04.696Z,88.1
2019-01-28T14:07:24.862Z,88
2019-01-28T14:07:44.962Z,88.2
2019-01-28T14:08:05.137Z,88.2
2019-01-28T14:08:25.204Z,87.9
2019-01-28T14:08:45.417Z,88.1
2019-01-28T14:09:05.593Z,88.2
2019-01-28T14:09:25.660Z,88.1
2019-01-28T14:09:45.853Z,88.2
2019-01-28T14:10:05.927Z,87.9
2019-01-28T14:10:26.121Z,88
2019-01-28T14:10:46.266Z,87.9
2019-01-28T14:11:06.382Z,88
2019-01-28T14:11:26.411Z,88
2019-01-28T14:11:46.646Z,88
2019-01-28T14:12:06.717Z,88.3
2019-01-28T14:12:26.815Z,88.1
2019-01-28T14:12:46.876Z,88.1
2019-01-28T14:13:07.066Z,88.1
2019-01-28T14:13:27.265Z,88.8
2019-01-28T14:13:47.489Z,88.2
2019-01-28T14:14:07.620Z,88.6
2019-01-28T14:14:27.843Z,88.5
2019-01-28T14:14:48.030Z,88.8
2019-01-28T14:15:08.295Z,88
2019-01-28T14:15:28.401Z,88.2
2019-01-28T14:15:48.674Z,88.8
2019-01-28T14:16:08.824Z,88.3
2019-01-28T14:16:28.982Z,88.1
2019-01-28T14:16:49.150Z,88.2
2019-01-28T14:17:09.216Z,88.8
2019-01-28T14:17:29.922Z,88.6
2019-01-28T14:17:50.196Z,88.4
2019-01-28T14:18:10.321Z,88.6
2019-01-28T14:18:30.476Z,88.5
2019-01-28T14:18:50.629Z,88.1
2019-01-28T14:19:10.792Z,88.1
2019-01-28T14:19:31.010Z,88.1
2019-01-28T14:19:59.039Z,88.1
2019-01-28T14:20:19.311Z,88.6
2019-01-28T14:20:39.556Z,88.1
2019-01-28T14:21:03.391Z,88.3
2019-01-28T14:21:23.656Z,88.8
2019-01-28T14:21:43.892Z,88.7
2019-01-28T14:22:04.206Z,88.3
2019-01-28T14:22:24.357Z,88.2
2019-01-28T14:22:44.536Z,88.6
2019-01-28T14:23:04.662Z,87.6
2019-01-28T14:23:26.625Z,87.6
2019-01-28T14:23:46.804Z,88.7
2019-01-28T14:24:06.879Z,88.4
2019-01-28T14:24:26.992Z,88.7
2019-01-28T14:24:47.176Z,88.4
2019-01-28T14:25:07.422Z,88.6
2019-01-28T14:25:27.522Z,88.4
2019-01-28T14:25:47.682Z,88.3
2019-01-28T14:26:07.767Z,88.4
2019-01-28T14:26:27.823Z,88.4
2019-01-28T14:26:47.925Z,88.4
2019-01-28T14:27:08.066Z,88.5
2019-01-28T14:27:28.139Z,88.4
2019-01-28T14:27:52.278Z,88.7
2019-01-28T14:28:15.581Z,87.9
2019-01-28T14:28:35.627Z,88.5
2019-01-28T14:28:56.434Z,88.3
2019-01-28T14:29:16.517Z,88.3
2019-01-28T14:29:36.839Z,87.9
2019-01-28T14:29:57.012Z,88.6
2019-01-28T14:30:17.168Z,88.5
